createdAt,value
2022-12-04T00:01:29.969Z,-0.84
2022-12-04T00:04:01.640Z,-0.81
2022-12-04T00:06:29.752Z,-0.82
2022-12-04T00:08:58.272Z,-0.84
2022-12-04T00:11:30.337Z,-0.84
2022-12-04T00:14:06.119Z,-0.85
2022-12-04T00:16:34.257Z,-0.84
2022-12-04T00:19:00.884Z,-0.86
2022-12-04T00:21:27.763Z,-0.82
2022-12-04T00:23:54.791Z,-0.84
2022-12-04T00:26:28.526Z,-0.82
2022-12-04T00:28:57.142Z,-0.82
2022-12-04T00:31:30.098Z,-0.83
2022-12-04T00:33:57.148Z,-0.81
2022-12-04T00:36:28.537Z,-0.81
2022-12-04T00:38:56.216Z,-0.79
2022-12-04T00:41:28.115Z,-0.80
2022-12-04T00:43:55.149Z,-0.79
2022-12-04T00:46:23.457Z,-0.80
2022-12-04T00:48:51.939Z,-0.78
2022-12-04T00:51:25.022Z,-0.77
2022-12-04T00:53:53.700Z,-0.80
2022-12-04T00:56:26.580Z,-0.74
2022-12-04T00:58:58.272Z,-0.73
2022-12-04T01:01:27.153Z,-0.72
2022-12-04T01:03:55.721Z,-0.74
2022-12-04T01:06:34.699Z,-0.76
2022-12-04T01:09:07.963Z,-0.73
2022-12-04T01:11:35.282Z,-0.72
2022-12-04T01:14:02.477Z,-0.74
2022-12-04T01:16:36.283Z,-0.71
2022-12-04T01:19:07.888Z,-0.68
2022-12-04T01:21:37.137Z,-0.67
2022-12-04T01:24:05.268Z,-0.70
2022-12-04T01:26:32.863Z,-0.67
2022-12-04T01:28:59.706Z,-0.71
2022-12-04T01:31:26.669Z,-0.70
2022-12-04T01:33:54.043Z,-0.66
2022-12-04T01:36:26.752Z,-0.66
2022-12-04T01:38:55.270Z,-0.66
2022-12-04T01:41:28.013Z,-0.63
2022-12-04T01:44:24.666Z,-0.60
2022-12-04T01:47:01.133Z,-0.59
2022-12-04T01:49:49.428Z,-0.60
2022-12-04T01:52:25.452Z,-0.61
2022-12-04T01:55:01.330Z,-0.60
2022-12-04T01:57:33.087Z,-0.58
2022-12-04T02:00:12.975Z,-0.55
2022-12-04T02:02:49.872Z,-0.54
2022-12-04T02:05:22.239Z,-0.54
2022-12-04T02:07:56.403Z,-0.56
2022-12-04T02:10:39.066Z,-0.51
2022-12-04T02:13:24.054Z,-0.53
2022-12-04T02:16:19.600Z,-0.51
2022-12-04T02:19:10.479Z,-0.48
2022-12-04T02:21:47.416Z,-0.47
2022-12-04T02:25:14.987Z,-0.47
2022-12-04T02:27:41.668Z,-0.51
2022-12-04T02:30:15.355Z,-0.48
2022-12-04T02:33:07.172Z,-0.48
2022-12-04T02:35:44.979Z,-0.48
2022-12-04T02:38:43.609Z,-0.48
2022-12-04T02:41:27.414Z,-0.48
2022-12-04T02:44:49.436Z,-0.50
2022-12-04T02:47:24.892Z,-0.44
2022-12-04T02:50:10.755Z,-0.43
2022-12-04T02:52:55.150Z,-0.41
2022-12-04T02:55:52.108Z,-0.39
2022-12-04T02:58:34.553Z,-0.41
2022-12-04T03:01:22.155Z,-0.37
2022-12-04T03:04:15.535Z,-0.35
2022-12-04T03:06:51.509Z,-0.38
2022-12-04T03:09:35.808Z,-0.32
2022-12-04T03:12:35.612Z,-0.33
2022-12-04T03:15:27.909Z,-0.33
2022-12-04T03:18:14.773Z,-0.32
2022-12-04T03:20:49.575Z,-0.26
2022-12-04T03:23:30.583Z,-0.26
2022-12-04T03:26:27.574Z,-0.23
2022-12-04T03:29:12.148Z,-0.22
2022-12-04T03:31:38.628Z,-0.19
2022-12-04T03:34:11.493Z,-0.19
2022-12-04T03:36:55.204Z,-0.21
2022-12-04T03:39:34.936Z,-0.19
2022-12-04T03:42:30.551Z,-0.15
2022-12-04T03:45:25.520Z,-0.13
2022-12-04T03:48:23.185Z,-0.12
2022-12-04T03:51:11.717Z,-0.12
2022-12-04T03:53:51.823Z,-0.12
2022-12-04T03:56:28.085Z,-0.12
2022-12-04T03:59:09.897Z,-0.05
2022-12-04T04:01:47.671Z,0.01
2022-12-04T04:04:25.959Z,-0.03
2022-12-04T04:07:07.942Z,-0.01
2022-12-04T04:09:42.330Z,0.02
2022-12-04T04:12:29.355Z,0.05
2022-12-04T04:15:35.717Z,0.10
2022-12-04T04:18:21.694Z,0.14
2022-12-04T04:21:22.797Z,0.17
2022-12-04T04:24:10.134Z,0.19
2022-12-04T04:26:49.708Z,0.18
2022-12-04T04:29:18.989Z,0.23
2022-12-04T04:32:05.222Z,0.29
2022-12-04T04:34:55.248Z,0.27
2022-12-04T04:37:39.794Z,0.31
2022-12-04T04:40:36.429Z,0.31
2022-12-04T04:43:40.051Z,0.35
2022-12-04T04:46:38.780Z,0.39
2022-12-04T04:49:14.687Z,0.41
2022-12-04T04:51:44.195Z,0.46
2022-12-04T04:54:16.300Z,0.46
2022-12-04T04:56:50.233Z,0.49
2022-12-04T04:59:17.120Z,0.54
2022-12-04T05:01:49.447Z,0.56
2022-12-04T05:04:16.186Z,0.58
2022-12-04T05:06:42.857Z,0.58
2022-12-04T05:09:09.563Z,0.59
2022-12-04T05:11:36.385Z,0.61
2022-12-04T05:14:03.456Z,0.66
2022-12-04T05:16:30.600Z,0.62
2022-12-04T05:19:15.836Z,0.71
2022-12-04T05:21:51.841Z,0.70
2022-12-04T05:24:18.495Z,0.70
2022-12-04T05:26:45.140Z,0.73
2022-12-04T05:29:14.839Z,0.73
2022-12-04T05:31:41.633Z,0.71
2022-12-04T05:34:08.280Z,0.76
2022-12-04T05:36:34.972Z,0.73
2022-12-04T05:39:01.698Z,0.74
2022-12-04T05:41:28.348Z,0.76
2022-12-04T05:43:55.768Z,0.79
2022-12-04T05:46:22.747Z,0.82
2022-12-04T05:48:49.447Z,0.81
2022-12-04T05:51:16.438Z,0.77
2022-12-04T05:53:43.248Z,0.76
2022-12-04T05:56:10.896Z,0.79
2022-12-04T05:58:39.069Z,0.78
2022-12-04T06:01:15.063Z,0.79
2022-12-04T06:03:41.719Z,0.84
2022-12-04T06:06:25.014Z,0.83
2022-12-04T06:08:56.410Z,0.88
2022-12-04T06:11:38.207Z,0.91
2022-12-04T06:14:10.895Z,0.95
2022-12-04T06:16:48.362Z,0.99
2022-12-04T06:19:20.480Z,0.99
2022-12-04T06:21:53.825Z,1.01
2022-12-04T06:24:25.177Z,1.04
2022-12-04T06:29:48.618Z,1.09
2022-12-04T06:32:21.158Z,1.11
2022-12-04T06:34:54.381Z,1.14
2022-12-04T06:37:25.313Z,1.19
2022-12-04T06:39:52.047Z,1.16
2022-12-04T06:42:18.768Z,1.15
2022-12-04T06:44:47.323Z,1.21
2022-12-04T06:47:14.024Z,1.22
2022-12-04T06:49:40.750Z,1.25
2022-12-04T06:52:07.461Z,1.24
2022-12-04T06:54:37.476Z,1.22
2022-12-04T06:57:04.301Z,1.25
2022-12-04T06:59:30.925Z,1.25
2022-12-04T07:02:00.442Z,1.25
2022-12-04T07:04:27.119Z,1.24
2022-12-04T07:06:54.605Z,1.30
2022-12-04T07:09:21.429Z,1.32
2022-12-04T07:11:48.148Z,1.32
2022-12-04T07:14:18.018Z,1.30
2022-12-04T07:16:47.141Z,1.30
2022-12-04T07:19:19.752Z,1.29
2022-12-04T07:21:49.563Z,1.27
2022-12-04T07:24:19.860Z,1.27
2022-12-04T07:26:49.674Z,1.26
2022-12-04T07:29:16.542Z,1.25
2022-12-04T07:31:44.538Z,1.26
2022-12-04T07:34:11.665Z,1.32
2022-12-04T07:36:40.752Z,1.33
2022-12-04T07:39:07.765Z,1.34
2022-12-04T07:41:35.116Z,1.37
2022-12-04T07:44:01.779Z,1.41
2022-12-04T07:46:29.911Z,1.42
2022-12-04T07:48:58.815Z,1.44
2022-12-04T07:51:29.918Z,1.47
2022-12-04T07:54:03.835Z,1.50
2022-12-04T07:56:35.935Z,1.51
2022-12-04T07:59:02.732Z,1.59
2022-12-04T08:01:29.766Z,1.69
2022-12-04T08:04:00.366Z,1.68
2022-12-04T08:06:34.749Z,1.66
2022-12-04T08:09:07.795Z,1.68
2022-12-04T08:11:36.499Z,1.67
2022-12-04T08:14:08.701Z,1.71
2022-12-04T08:16:35.657Z,1.71
2022-12-04T08:19:03.399Z,1.72
2022-12-04T08:21:32.812Z,1.75
2022-12-04T08:24:04.717Z,1.82
2022-12-04T08:26:34.393Z,1.85
2022-12-04T08:29:02.495Z,1.82
2022-12-04T08:31:32.996Z,1.84
2022-12-04T08:34:04.335Z,1.91
2022-12-04T08:36:31.703Z,1.92
2022-12-04T08:38:58.362Z,2.00
2022-12-04T08:41:27.236Z,2.00
2022-12-04T08:43:55.868Z,2.02
2022-12-04T08:46:26.651Z,2.11
2022-12-04T08:48:54.965Z,2.10
2022-12-04T08:51:27.821Z,2.19
2022-12-04T08:54:03.360Z,2.21
2022-12-04T08:56:32.728Z,2.35
2022-12-04T08:59:01.700Z,2.38
2022-12-04T09:01:30.384Z,2.37
2022-12-04T09:03:57.659Z,2.45
2022-12-04T09:06:27.011Z,2.53
2022-12-04T09:08:57.710Z,2.52
2022-12-04T09:11:34.098Z,2.55
2022-12-04T09:14:03.368Z,2.59
2022-12-04T09:16:30.810Z,2.55
2022-12-04T09:18:57.726Z,2.48
2022-12-04T09:21:25.762Z,2.52
2022-12-04T09:23:55.252Z,2.60
2022-12-04T09:26:34.711Z,2.79
2022-12-04T09:29:05.261Z,2.90
2022-12-04T09:31:33.917Z,2.87
2022-12-04T09:34:02.307Z,2.87
2022-12-04T09:36:37.480Z,2.82
2022-12-04T09:39:07.285Z,2.90
2022-12-04T09:41:36.905Z,2.99
2022-12-04T09:44:34.835Z,2.94
2022-12-04T09:47:10.449Z,3.05
2022-12-04T09:49:47.731Z,3.13
2022-12-04T09:52:52.727Z,3.16
2022-12-04T09:55:53.224Z,3.22
2022-12-04T09:58:49.773Z,3.29
2022-12-04T10:01:36.175Z,3.24
2022-12-04T10:04:06.408Z,3.16
2022-12-04T10:07:07.563Z,3.25
2022-12-04T10:10:19.116Z,3.27
2022-12-04T10:13:20.751Z,3.41
2022-12-04T10:29:01.866Z,3.66
2022-12-04T10:31:34.019Z,3.71
2022-12-04T10:34:25.424Z,3.61
2022-12-04T10:40:17.276Z,3.79
2022-12-04T10:46:35.809Z,3.82
2022-12-04T10:49:21.166Z,3.90
2022-12-04T10:51:49.541Z,3.94
2022-12-04T10:54:48.400Z,4.07
2022-12-04T10:57:16.714Z,4.11
2022-12-04T10:59:52.582Z,4.13
2022-12-04T11:02:44.417Z,3.94
2022-12-04T11:05:29.996Z,3.91
2022-12-04T11:08:01.095Z,3.97
2022-12-04T11:10:47.416Z,4.04
2022-12-04T11:42:28.159Z,4.30
2022-12-04T13:40:25.332Z,4.30
2022-12-04T13:42:52.672Z,4.27
2022-12-04T13:45:36.199Z,4.30
2022-12-04T13:48:04.444Z,4.25
2022-12-04T13:50:39.098Z,4.20
2022-12-04T13:53:31.199Z,4.24
2022-12-04T13:56:04.569Z,4.20
2022-12-04T13:58:36.209Z,4.17
2022-12-04T14:01:24.859Z,4.20
2022-12-04T14:03:59.735Z,4.18
2022-12-04T14:21:52.028Z,4.18
2022-12-04T14:24:38.806Z,4.18
2022-12-04T14:27:42.309Z,4.25
2022-12-04T14:30:40.646Z,4.19
2022-12-04T14:33:24.382Z,4.21
2022-12-04T14:36:06.391Z,4.19
2022-12-04T14:38:34.321Z,4.23
2022-12-04T14:41:01.818Z,4.26
2022-12-04T15:32:12.243Z,4.41
2022-12-04T15:34:52.248Z,4.38
2022-12-04T15:37:31.174Z,4.36
2022-12-04T15:40:12.164Z,4.48
2022-12-04T15:42:39.064Z,4.45
2022-12-04T16:22:27.155Z,4.41
2022-12-04T16:41:57.369Z,4.47
2022-12-04T18:10:13.292Z,4.64
2022-12-04T18:12:41.341Z,4.61
2022-12-04T19:53:10.879Z,4.84
2022-12-04T19:55:37.766Z,4.81
2022-12-04T19:58:04.601Z,4.75
2022-12-04T20:00:31.414Z,4.74
2022-12-04T20:02:58.396Z,4.73
2022-12-04T20:10:36.141Z,4.75
2022-12-04T20:13:03.292Z,4.71
2022-12-04T20:15:35.451Z,4.76
2022-12-04T20:34:43.794Z,4.68
2022-12-04T20:37:11.278Z,4.72
2022-12-04T20:39:38.082Z,4.70
2022-12-04T20:42:04.906Z,4.71
2022-12-04T20:44:31.959Z,4.73
2022-12-04T20:46:59.054Z,4.74
2022-12-04T20:49:25.763Z,4.74
2022-12-04T20:51:52.698Z,4.73
2022-12-04T20:54:24.330Z,4.72
2022-12-04T20:56:53.554Z,4.77
2022-12-04T20:59:25.385Z,4.74
2022-12-04T21:01:52.657Z,4.71
2022-12-04T21:04:20.265Z,4.74
2022-12-04T21:06:50.262Z,4.76
2022-12-04T21:09:26.090Z,4.75
2022-12-04T21:11:56.433Z,4.72
2022-12-04T21:14:50.082Z,4.75
2022-12-04T21:17:19.596Z,4.70
2022-12-04T21:19:51.126Z,4.73
2022-12-04T21:22:19.878Z,4.70
2022-12-04T21:24:51.795Z,4.73
2022-12-04T21:27:21.178Z,4.74
2022-12-04T21:29:49.766Z,4.74
2022-12-04T21:32:19.170Z,4.72
2022-12-04T21:34:49.242Z,4.66
2022-12-04T21:37:20.330Z,4.70
2022-12-04T21:39:49.377Z,4.73
2022-12-04T21:42:31.008Z,4.76
2022-12-04T21:45:05.923Z,4.75
2022-12-04T21:47:37.271Z,4.78
2022-12-04T21:50:06.159Z,4.77
2022-12-04T21:52:35.505Z,4.79
2022-12-04T21:55:02.201Z,4.78
2022-12-04T21:57:29.264Z,4.86
2022-12-04T21:59:59.019Z,4.84
2022-12-04T22:02:28.539Z,4.79
2022-12-04T22:04:55.414Z,4.88
2022-12-04T22:07:22.752Z,4.83
2022-12-04T22:09:49.541Z,4.86
2022-12-04T22:15:03.284Z,4.82
2022-12-04T22:17:30.237Z,4.78
2022-12-04T22:19:59.659Z,4.74
2022-12-04T22:22:26.576Z,4.69
2022-12-04T22:24:55.684Z,4.66
2022-12-04T22:27:22.434Z,4.60
2022-12-04T22:30:02.226Z,4.58
2022-12-04T22:32:34.749Z,4.55
2022-12-04T22:35:01.764Z,4.58
2022-12-04T22:37:28.509Z,4.57
2022-12-04T22:39:55.301Z,4.55
2022-12-04T22:42:44.463Z,4.57
2022-12-04T22:45:11.034Z,4.60
2022-12-04T22:47:38.706Z,4.55
2022-12-04T22:50:06.970Z,4.58
2022-12-04T22:52:36.661Z,4.51
2022-12-04T22:55:05.058Z,4.53
2022-12-04T22:57:34.889Z,4.48
2022-12-04T23:00:04.680Z,4.52
2022-12-04T23:02:34.866Z,4.45
2022-12-04T23:05:01.631Z,4.52
2022-12-04T23:07:28.467Z,4.54
2022-12-04T23:09:55.394Z,4.55
2022-12-04T23:12:23.626Z,4.49
2022-12-04T23:14:53.290Z,4.47
2022-12-04T23:17:20.559Z,4.47
2022-12-04T23:19:47.743Z,4.40
2022-12-04T23:22:14.646Z,4.42
2022-12-04T23:24:43.444Z,4.45
2022-12-04T23:27:10.169Z,4.48
2022-12-04T23:29:52.876Z,4.44
2022-12-04T23:32:20.311Z,4.43
2022-12-04T23:34:53.157Z,4.43
2022-12-04T23:37:20.138Z,4.45
2022-12-04T23:39:50.822Z,4.44
2022-12-04T23:42:17.663Z,4.45
2022-12-04T23:44:44.452Z,4.43
2022-12-04T23:47:11.282Z,4.40
2022-12-04T23:49:38.102Z,4.37
2022-12-04T23:52:05.117Z,4.49
2022-12-04T23:54:37.536Z,4.47
2022-12-04T23:57:04.804Z,4.43
2022-12-04T23:59:31.527Z,4.45
